Time;durP1;ratioP1;P1;durP2;ratioP2;P2;SDS_P1;SDS_P2;PMS_P1;PMS_P2;Temp;Humidity;BMP_temperature;BMP_pressure;BME280_temperature;BME280_humidity;BME280_pressure;Samples;Min_cycle;Max_cycle;Signal;HPM_P1;HPM_P2
2022/09/18 00:02:17;;;;;;;;;;;11.50;84.60;;;;;;5072781;28;19993;-85
2022/09/18 00:04:43;;;;;;;;;;;11.50;85.00;;;;;;5062391;28;20042;-84
2022/09/18 00:07:08;;;;;;;;;;;11.60;85.00;;;;;;5065254;28;20383;-84
2022/09/18 00:09:34;;;;;;;;;;;11.60;84.90;;;;;;5074361;28;19916;-85
2022/09/18 00:12:00;;;;;;;;;;;11.60;85.10;;;;;;5074854;28;20302;-84
2022/09/18 00:14:25;;;;;;;;;;;11.70;85.10;;;;;;5090050;28;19908;-84
2022/09/18 00:16:51;;;;;;;;;;;11.70;85.20;;;;;;5084882;28;19972;-84
2022/09/18 00:19:17;;;;;;;;;;;11.60;85.80;;;;;;5072754;28;19912;-84
2022/09/18 00:21:43;;;;;;;;;;;11.60;86.10;;;;;;5073967;28;19927;-84
2022/09/18 00:24:09;;;;;;;;;;;11.60;86.30;;;;;;5076791;28;19930;-84
2022/09/18 00:26:35;;;;;;;;;;;11.60;86.50;;;;;;5074498;28;19920;-85
2022/09/18 00:29:00;;;;;;;;;;;11.50;86.80;;;;;;5075421;28;19918;-85
2022/09/18 00:31:28;;;;;;;;;;;11.60;86.70;;;;;;5091204;28;19915;-84
2022/09/18 00:33:54;;;;;;;;;;;11.60;86.30;;;;;;5068220;28;19920;-84
2022/09/18 00:36:20;;;;;;;;;;;11.60;86.10;;;;;;5084382;28;19916;-83
2022/09/18 00:38:46;;;;;;;;;;;11.70;86.10;;;;;;5085791;28;19930;-84
2022/09/18 00:41:13;;;;;;;;;;;11.70;86.00;;;;;;5079898;28;19963;-88
2022/09/18 00:43:39;;;;;;;;;;;11.70;86.30;;;;;;5070410;28;19977;-83
2022/09/18 00:46:18;;;;;;;;;;;11.70;85.90;;;;;;5065190;28;20387;-84
2022/09/18 00:48:44;;;;;;;;;;;11.70;85.80;;;;;;5082326;28;19931;-84
2022/09/18 00:51:09;;;;;;;;;;;11.70;85.80;;;;;;5071219;28;19916;-86
2022/09/18 00:53:39;;;;;;;;;;;11.70;86.40;;;;;;5085129;28;19939;-85
2022/09/18 00:56:06;;;;;;;;;;;11.60;86.00;;;;;;5092231;28;20280;-86
2022/09/18 00:58:32;;;;;;;;;;;11.60;86.00;;;;;;5065443;28;19923;-85
2022/09/18 01:00:58;;;;;;;;;;;11.60;86.40;;;;;;5062758;28;19920;-85
2022/09/18 01:03:23;;;;;;;;;;;11.50;86.20;;;;;;5066318;28;19971;-85
2022/09/18 01:05:49;;;;;;;;;;;11.50;86.30;;;;;;5069304;28;20012;-85
2022/09/18 01:08:23;;;;;;;;;;;11.50;86.60;;;;;;5072653;28;19923;-84
2022/09/18 01:11:12;;;;;;;;;;;11.40;86.90;;;;;;5079411;28;19919;-84
2022/09/18 01:13:42;;;;;;;;;;;11.40;87.30;;;;;;5056306;28;19939;-85
2022/09/18 01:16:16;;;;;;;;;;;11.50;87.00;;;;;;5087366;28;19917;-84
2022/09/18 01:18:58;;;;;;;;;;;11.60;86.60;;;;;;5085148;28;19923;-84
2022/09/18 01:21:42;;;;;;;;;;;11.60;86.30;;;;;;5072224;28;19918;-85
2022/09/18 01:24:27;;;;;;;;;;;11.70;86.30;;;;;;5060127;28;19916;-85
2022/09/18 01:26:55;;;;;;;;;;;11.60;86.20;;;;;;5086948;28;19926;-85
2022/09/18 01:29:38;;;;;;;;;;;11.70;86.30;;;;;;5092580;28;19916;-86
2022/09/18 01:32:10;;;;;;;;;;;11.70;86.20;;;;;;5063020;28;19939;-85
2022/09/18 01:34:55;;;;;;;;;;;11.80;85.80;;;;;;5062376;28;19913;-84
2022/09/18 01:37:39;;;;;;;;;;;11.70;85.70;;;;;;5092066;28;19916;-85
2022/09/18 01:40:20;;;;;;;;;;;11.70;86.10;;;;;;5090729;28;19948;-85
2022/09/18 01:42:47;;;;;;;;;;;11.70;86.00;;;;;;5071232;28;19955;-83
2022/09/18 01:45:15;;;;;;;;;;;11.70;86.30;;;;;;5071745;28;19912;-83
2022/09/18 01:47:45;;;;;;;;;;;11.90;86.00;;;;;;5087321;28;20015;-85
2022/09/18 01:50:11;;;;;;;;;;;11.80;86.20;;;;;;5090958;28;19912;-85
2022/09/18 01:52:45;;;;;;;;;;;11.80;85.90;;;;;;5067988;28;20390;-85
2022/09/18 01:55:15;;;;;;;;;;;11.70;86.40;;;;;;5062403;28;19912;-85
2022/09/18 01:58:06;;;;;;;;;;;11.80;86.60;;;;;;5085198;28;19912;-85
2022/09/18 02:00:33;;;;;;;;;;;11.80;86.30;;;;;;5080196;28;19999;-85
2022/09/18 02:03:04;;;;;;;;;;;11.80;86.10;;;;;;5069318;28;19916;-84
2022/09/18 02:05:35;;;;;;;;;;;11.70;86.30;;;;;;5062177;28;19919;-84
2022/09/18 02:08:10;;;;;;;;;;;11.70;86.50;;;;;;5073119;28;19916;-84
2022/09/18 02:10:38;;;;;;;;;;;11.60;86.50;;;;;;5084841;28;19912;-85
2022/09/18 02:13:06;;;;;;;;;;;11.70;86.70;;;;;;5081410;28;19912;-84
2022/09/18 02:15:35;;;;;;;;;;;11.70;86.60;;;;;;5080001;28;19912;-85
2022/09/18 02:18:05;;;;;;;;;;;11.70;86.80;;;;;;5065467;28;19919;-85
2022/09/18 02:20:33;;;;;;;;;;;11.70;87.10;;;;;;5057554;28;19959;-85
2022/09/18 02:23:01;;;;;;;;;;;11.60;87.00;;;;;;5082095;28;20378;-85
2022/09/18 02:25:29;;;;;;;;;;;11.80;86.70;;;;;;5070598;28;19920;-86
2022/09/18 02:27:55;;;;;;;;;;;11.80;86.80;;;;;;5070930;28;19952;-86
2022/09/18 02:30:20;;;;;;;;;;;11.80;86.50;;;;;;5062440;28;20259;-86
2022/09/18 02:32:46;;;;;;;;;;;11.80;86.50;;;;;;5086943;28;19920;-85
2022/09/18 02:35:12;;;;;;;;;;;11.80;86.50;;;;;;5081311;28;20003;-85
2022/09/18 02:37:56;;;;;;;;;;;11.80;86.50;;;;;;5059226;28;19923;-85
2022/09/18 02:40:45;;;;;;;;;;;11.80;86.70;;;;;;5065423;28;19902;-86
2022/09/18 02:43:16;;;;;;;;;;;11.90;87.00;;;;;;5082205;28;20505;-85
2022/09/18 02:45:44;;;;;;;;;;;11.80;87.10;;;;;;5072817;28;19919;-85
2022/09/18 02:48:29;;;;;;;;;;;11.90;86.90;;;;;;5071883;28;20014;-85
2022/09/18 02:51:03;;;;;;;;;;;11.80;87.00;;;;;;5090483;28;19919;-85
2022/09/18 02:53:42;;;;;;;;;;;11.80;87.00;;;;;;5089989;28;19913;-86
2022/09/18 02:56:28;;;;;;;;;;;11.80;87.10;;;;;;5073897;28;19920;-85
2022/09/18 02:58:56;;;;;;;;;;;11.90;86.80;;;;;;5066003;28;19916;-85
2022/09/18 03:01:23;;;;;;;;;;;11.90;86.50;;;;;;5071350;28;20003;-85
2022/09/18 03:03:50;;;;;;;;;;;11.90;86.80;;;;;;5074044;28;19915;-85
2022/09/18 03:06:16;;;;;;;;;;;11.80;86.70;;;;;;5068724;28;19912;-85
2022/09/18 03:08:41;;;;;;;;;;;11.80;87.00;;;;;;5085396;28;19916;-85
2022/09/18 03:11:07;;;;;;;;;;;11.70;87.20;;;;;;5061457;28;20382;-85
2022/09/18 03:13:33;;;;;;;;;;;11.80;87.40;;;;;;5066838;28;19919;-85
2022/09/18 03:15:59;;;;;;;;;;;11.80;87.10;;;;;;5082297;28;20349;-85
2022/09/18 03:18:24;;;;;;;;;;;11.80;87.20;;;;;;5069218;28;20418;-85
2022/09/18 03:20:50;;;;;;;;;;;11.90;86.80;;;;;;5082284;28;19926;-85
2022/09/18 03:23:15;;;;;;;;;;;11.90;87.20;;;;;;5088188;28;19951;-85
2022/09/18 03:25:41;;;;;;;;;;;11.90;86.90;;;;;;5077370;28;19920;-86
2022/09/18 03:28:06;;;;;;;;;;;11.90;86.80;;;;;;5072192;28;19919;-85
2022/09/18 03:30:32;;;;;;;;;;;11.90;86.60;;;;;;5065866;28;19919;-85
2022/09/18 03:32:57;;;;;;;;;;;11.90;86.80;;;;;;5072076;28;19916;-85
2022/09/18 03:35:23;;;;;;;;;;;11.90;87.10;;;;;;5068996;28;19912;-85
2022/09/18 03:37:48;;;;;;;;;;;11.90;87.10;;;;;;5061352;28;19921;-85
2022/09/18 03:40:14;;;;;;;;;;;11.80;87.60;;;;;;5067724;28;20007;-85
2022/09/18 03:42:46;;;;;;;;;;;11.80;87.70;;;;;;5081964;28;19912;-84
2022/09/18 03:45:12;;;;;;;;;;;11.90;87.60;;;;;;5071198;28;19912;-85
2022/09/18 03:47:37;;;;;;;;;;;11.80;87.90;;;;;;5071119;28;19920;-87
2022/09/18 03:50:04;;;;;;;;;;;11.80;87.70;;;;;;5066880;28;19932;-88
2022/09/18 03:52:30;;;;;;;;;;;11.80;88.40;;;;;;5068346;28;19921;-87
2022/09/18 03:54:55;;;;;;;;;;;11.70;88.70;;;;;;5064295;28;19912;-85
2022/09/18 03:57:21;;;;;;;;;;;11.80;88.40;;;;;;5065270;28;20400;-84
2022/09/18 03:59:47;;;;;;;;;;;11.70;88.90;;;;;;5083899;28;19978;-84
2022/09/18 04:02:12;;;;;;;;;;;11.80;88.90;;;;;;5082086;28;19955;-84
2022/09/18 04:04:38;;;;;;;;;;;11.80;88.80;;;;;;5071718;28;19912;-83
2022/09/18 04:07:03;;;;;;;;;;;11.80;88.70;;;;;;5065192;28;19962;-83
2022/09/18 04:09:29;;;;;;;;;;;11.70;89.10;;;;;;5066601;28;20352;-84
2022/09/18 04:11:54;;;;;;;;;;;11.80;89.10;;;;;;5067652;28;19916;-84
2022/09/18 04:14:21;;;;;;;;;;;11.90;88.50;;;;;;5076553;28;20366;-83
2022/09/18 04:16:47;;;;;;;;;;;11.80;88.60;;;;;;5068601;28;19920;-84
2022/09/18 04:19:12;;;;;;;;;;;11.80;88.60;;;;;;5098275;28;19917;-84
2022/09/18 04:21:38;;;;;;;;;;;11.80;88.50;;;;;;5075014;28;19939;-84
2022/09/18 04:24:03;;;;;;;;;;;11.70;88.60;;;;;;5072434;28;19920;-85
2022/09/18 04:26:29;;;;;;;;;;;11.60;89.00;;;;;;5060784;28;19912;-84
2022/09/18 04:28:54;;;;;;;;;;;11.60;89.10;;;;;;5064612;28;20345;-84
2022/09/18 04:31:20;;;;;;;;;;;11.60;89.10;;;;;;5063725;28;19912;-84
2022/09/18 04:33:45;;;;;;;;;;;11.70;88.80;;;;;;5073322;28;19934;-84
2022/09/18 04:36:10;;;;;;;;;;;11.70;88.50;;;;;;5065926;28;19944;-84
2022/09/18 04:38:38;;;;;;;;;;;11.70;88.60;;;;;;5065006;28;19919;-85
2022/09/18 04:41:03;;;;;;;;;;;11.70;89.00;;;;;;5082473;28;19954;-84
2022/09/18 04:43:29;;;;;;;;;;;11.70;88.90;;;;;;5071528;28;19912;-85
2022/09/18 04:45:54;;;;;;;;;;;11.60;88.90;;;;;;5064064;28;19918;-83
2022/09/18 04:48:20;;;;;;;;;;;11.70;89.00;;;;;;5073609;28;19916;-83
2022/09/18 04:50:46;;;;;;;;;;;11.70;88.80;;;;;;5084292;28;19912;-84
2022/09/18 04:53:12;;;;;;;;;;;11.80;89.30;;;;;;5074294;28;19999;-84
2022/09/18 04:55:38;;;;;;;;;;;11.70;89.40;;;;;;5073434;28;20416;-84
2022/09/18 04:58:04;;;;;;;;;;;11.80;89.00;;;;;;5067683;28;19916;-83
2022/09/18 05:00:30;;;;;;;;;;;11.70;89.20;;;;;;5062504;28;19958;-84
2022/09/18 05:02:55;;;;;;;;;;;11.70;89.00;;;;;;5074220;28;19926;-84
2022/09/18 05:05:21;;;;;;;;;;;11.70;89.20;;;;;;5067131;28;19912;-84
2022/09/18 05:07:46;;;;;;;;;;;11.60;89.00;;;;;;5076080;28;19955;-84
2022/09/18 05:10:12;;;;;;;;;;;11.60;89.20;;;;;;5088453;28;19916;-84
2022/09/18 05:12:41;;;;;;;;;;;11.60;89.30;;;;;;5062190;28;19920;-84
2022/09/18 05:15:07;;;;;;;;;;;11.60;89.00;;;;;;5088879;28;19912;-84
2022/09/18 05:17:32;;;;;;;;;;;11.60;89.10;;;;;;5071731;28;19912;-84
2022/09/18 05:19:57;;;;;;;;;;;11.60;89.30;;;;;;5063435;28;20007;-85
2022/09/18 05:22:23;;;;;;;;;;;11.60;89.30;;;;;;5089572;28;19912;-84
2022/09/18 05:24:48;;;;;;;;;;;11.60;89.20;;;;;;5074405;28;19912;-83
2022/09/18 05:27:14;;;;;;;;;;;11.60;89.60;;;;;;5087110;28;19932;-83
2022/09/18 05:29:39;;;;;;;;;;;11.60;89.40;;;;;;5089713;28;19913;-84
2022/09/18 05:32:05;;;;;;;;;;;11.60;89.60;;;;;;5087614;28;19918;-88
2022/09/18 05:34:31;;;;;;;;;;;11.70;89.30;;;;;;5067735;28;19997;-89
2022/09/18 05:36:56;;;;;;;;;;;11.60;89.10;;;;;;5070314;28;19959;-87
2022/09/18 05:39:22;;;;;;;;;;;11.60;89.10;;;;;;5078136;28;19916;-88
2022/09/18 05:41:49;;;;;;;;;;;11.60;89.20;;;;;;5068845;28;19970;-87
2022/09/18 05:44:14;;;;;;;;;;;11.60;89.20;;;;;;5072701;28;20027;-82
2022/09/18 05:46:40;;;;;;;;;;;11.60;89.30;;;;;;5073395;28;19968;-86
2022/09/18 05:49:09;;;;;;;;;;;11.60;89.20;;;;;;5105050;28;19917;-89
2022/09/18 05:51:35;;;;;;;;;;;11.60;89.30;;;;;;5071794;28;19920;-86
2022/09/18 05:54:00;;;;;;;;;;;11.60;89.20;;;;;;5068920;28;19916;-87
2022/09/18 05:56:26;;;;;;;;;;;11.60;89.30;;;;;;5077963;28;19940;-86
2022/09/18 05:58:53;;;;;;;;;;;11.60;89.40;;;;;;5077727;28;20371;-86
2022/09/18 06:01:18;;;;;;;;;;;11.70;89.50;;;;;;5096972;28;19919;-88
2022/09/18 06:03:43;;;;;;;;;;;11.70;89.20;;;;;;5070946;28;20353;-88
2022/09/18 06:06:09;;;;;;;;;;;11.70;89.30;;;;;;5091234;28;19914;-86
2022/09/18 06:08:35;;;;;;;;;;;11.70;89.30;;;;;;5071587;28;20035;-88
2022/09/18 06:11:00;;;;;;;;;;;11.70;89.40;;;;;;5072001;28;19916;-88
2022/09/18 06:13:26;;;;;;;;;;;11.80;89.40;;;;;;5063027;28;20271;-89
2022/09/18 06:15:51;;;;;;;;;;;11.80;89.10;;;;;;5069327;28;19918;-87
2022/09/18 06:18:17;;;;;;;;;;;11.80;89.40;;;;;;5071984;28;20415;-87
2022/09/18 06:20:53;;;;;;;;;;;11.80;89.40;;;;;;5089384;28;20331;-92
2022/09/18 06:23:18;;;;;;;;;;;11.80;89.10;;;;;;5072843;28;19923;-88
2022/09/18 06:25:44;;;;;;;;;;;11.90;89.10;;;;;;5059671;28;19913;-89
2022/09/18 06:28:09;;;;;;;;;;;11.90;89.10;;;;;;5063322;28;19912;-88
2022/09/18 06:30:35;;;;;;;;;;;11.90;89.10;;;;;;5074818;28;19900;-84
2022/09/18 06:33:02;;;;;;;;;;;11.90;89.10;;;;;;5107259;28;19958;-87
2022/09/18 06:35:27;;;;;;;;;;;11.80;88.90;;;;;;5091154;28;19918;-88
2022/09/18 06:37:53;;;;;;;;;;;11.80;89.10;;;;;;5090949;28;19908;-87
2022/09/18 06:40:18;;;;;;;;;;;12.00;89.00;;;;;;5097253;28;19923;-87
2022/09/18 06:42:44;;;;;;;;;;;12.00;88.90;;;;;;5091595;28;19919;-86
2022/09/18 06:45:09;;;;;;;;;;;12.00;88.90;;;;;;5084826;28;19966;-87
2022/09/18 06:47:35;;;;;;;;;;;12.00;88.80;;;;;;5093170;28;19920;-87
2022/09/18 06:50:00;;;;;;;;;;;12.10;88.70;;;;;;5088571;28;19997;-88
2022/09/18 06:52:26;;;;;;;;;;;12.10;88.70;;;;;;5094810;28;19908;-88
2022/09/18 06:54:51;;;;;;;;;;;12.00;88.80;;;;;;5076719;28;19927;-86
2022/09/18 06:57:17;;;;;;;;;;;12.00;88.90;;;;;;5075841;28;19908;-87
2022/09/18 06:59:42;;;;;;;;;;;12.10;88.70;;;;;;5077732;28;19923;-87
2022/09/18 07:02:12;;;;;;;;;;;12.00;88.90;;;;;;5080740;28;19912;-86
2022/09/18 07:04:38;;;;;;;;;;;12.00;89.30;;;;;;5081903;28;19916;-87
2022/09/18 07:07:04;;;;;;;;;;;12.00;89.20;;;;;;5075695;28;19920;-87
2022/09/18 07:09:29;;;;;;;;;;;12.10;89.20;;;;;;5071892;28;19913;-86
2022/09/18 07:11:56;;;;;;;;;;;12.10;89.10;;;;;;5074205;28;19972;-86
2022/09/18 07:14:21;;;;;;;;;;;12.10;89.40;;;;;;5095347;28;19912;-86
2022/09/18 07:16:47;;;;;;;;;;;12.10;89.50;;;;;;5069276;28;19923;-83
2022/09/18 07:19:12;;;;;;;;;;;12.10;88.90;;;;;;5066456;28;19912;-83
2022/09/18 07:21:38;;;;;;;;;;;12.10;89.00;;;;;;5094387;28;19916;-84
2022/09/18 07:24:04;;;;;;;;;;;12.10;88.80;;;;;;5089076;28;19908;-82
2022/09/18 07:26:29;;;;;;;;;;;12.20;88.70;;;;;;5086175;28;19912;-85
2022/09/18 07:28:57;;;;;;;;;;;12.30;88.40;;;;;;5061708;28;21265;-83
2022/09/18 07:31:22;;;;;;;;;;;12.30;88.50;;;;;;5079850;28;19922;-82
2022/09/18 07:33:52;;;;;;;;;;;12.20;88.40;;;;;;5072924;28;19955;-83
2022/09/18 07:36:17;;;;;;;;;;;12.20;88.90;;;;;;5090235;28;19967;-84
2022/09/18 07:38:43;;;;;;;;;;;12.20;89.10;;;;;;5063841;28;20334;-87
2022/09/18 07:41:08;;;;;;;;;;;12.20;89.10;;;;;;5072906;28;20401;-85
2022/09/18 07:43:33;;;;;;;;;;;12.30;89.40;;;;;;5084039;28;19920;-87
2022/09/18 07:45:59;;;;;;;;;;;12.20;89.00;;;;;;5073810;28;19918;-86
2022/09/18 07:48:25;;;;;;;;;;;12.30;89.10;;;;;;5079644;28;20341;-86
2022/09/18 07:50:50;;;;;;;;;;;12.20;88.90;;;;;;5079561;28;19912;-86
2022/09/18 07:53:17;;;;;;;;;;;12.30;89.50;;;;;;5092869;28;19915;-86
2022/09/18 07:55:46;;;;;;;;;;;12.30;89.50;;;;;;5092742;28;19912;-87
2022/09/18 07:58:11;;;;;;;;;;;12.30;89.30;;;;;;5067473;28;19951;-86
2022/09/18 08:00:37;;;;;;;;;;;12.40;89.40;;;;;;5075496;28;19916;-85
2022/09/18 08:03:04;;;;;;;;;;;12.40;89.00;;;;;;5087804;28;19913;-84
2022/09/18 08:05:29;;;;;;;;;;;12.60;89.10;;;;;;5070026;28;19965;-84
2022/09/18 08:07:55;;;;;;;;;;;12.60;88.20;;;;;;5056313;28;19942;-84
2022/09/18 08:10:20;;;;;;;;;;;12.50;88.50;;;;;;5069924;28;19923;-84
2022/09/18 08:12:46;;;;;;;;;;;12.50;88.30;;;;;;5061810;28;19912;-84
2022/09/18 08:15:11;;;;;;;;;;;12.50;87.90;;;;;;5070900;28;19952;-83
2022/09/18 08:17:44;;;;;;;;;;;12.40;87.90;;;;;;5078286;28;20018;-85
2022/09/18 08:20:10;;;;;;;;;;;12.50;88.10;;;;;;5065361;28;19958;-84
2022/09/18 08:22:39;;;;;;;;;;;12.40;87.90;;;;;;5076631;28;19913;-84
2022/09/18 08:25:05;;;;;;;;;;;12.30;88.00;;;;;;5067094;28;19976;-84
2022/09/18 08:27:34;;;;;;;;;;;12.40;87.40;;;;;;5071625;28;20370;-84
2022/09/18 08:30:00;;;;;;;;;;;12.30;88.20;;;;;;5065892;28;19935;-84
2022/09/18 08:32:25;;;;;;;;;;;12.30;88.20;;;;;;5082247;28;19924;-85
2022/09/18 08:34:51;;;;;;;;;;;12.30;88.30;;;;;;5111396;28;19923;-87
2022/09/18 08:37:16;;;;;;;;;;;12.40;88.40;;;;;;5103032;28;20433;-85
2022/09/18 08:39:41;;;;;;;;;;;12.40;88.80;;;;;;5093441;28;19919;-84
2022/09/18 08:42:07;;;;;;;;;;;12.40;89.00;;;;;;5079815;28;20373;-85
2022/09/18 08:44:38;;;;;;;;;;;12.40;88.50;;;;;;5075576;28;20392;-85
2022/09/18 08:47:16;;;;;;;;;;;12.40;89.10;;;;;;5073804;28;19919;-86
2022/09/18 08:49:45;;;;;;;;;;;12.30;89.00;;;;;;5061030;28;19928;-88
2022/09/18 08:52:23;;;;;;;;;;;12.30;88.70;;;;;;5064879;28;20017;-86
2022/09/18 08:54:56;;;;;;;;;;;12.30;88.90;;;;;;5074697;28;19919;-86
2022/09/18 08:57:24;;;;;;;;;;;12.30;88.90;;;;;;5072422;28;19912;-86
2022/09/18 09:00:13;;;;;;;;;;;12.30;88.80;;;;;;5064286;28;19920;-87
2022/09/18 09:02:44;;;;;;;;;;;12.30;89.00;;;;;;5070214;28;19916;-85
2022/09/18 09:05:11;;;;;;;;;;;12.40;89.10;;;;;;5064695;28;19912;-87
2022/09/18 09:07:57;;;;;;;;;;;12.40;88.90;;;;;;5071834;28;20429;-87
2022/09/18 09:10:55;;;;;;;;;;;12.60;88.90;;;;;;5055755;28;19923;-86
2022/09/18 09:13:56;;;;;;;;;;;12.60;88.90;;;;;;5021517;28;20386;-85
2022/09/18 09:16:48;;;;;;;;;;;12.60;88.80;;;;;;4966492;28;19917;-86
2022/09/18 09:19:36;;;;;;;;;;;12.60;88.60;;;;;;5064053;28;19920;-85
2022/09/18 09:22:15;;;;;;;;;;;12.60;88.90;;;;;;5083477;28;19924;-84
2022/09/18 09:24:49;;;;;;;;;;;12.70;88.80;;;;;;5085781;28;19920;-86
2022/09/18 09:27:31;;;;;;;;;;;12.70;88.60;;;;;;5084870;28;19923;-85
2022/09/18 09:30:04;;;;;;;;;;;12.60;88.40;;;;;;5066024;28;20384;-85
2022/09/18 09:32:35;;;;;;;;;;;12.60;88.50;;;;;;5073853;28;19920;-87
2022/09/18 09:35:20;;;;;;;;;;;12.80;88.10;;;;;;5088061;28;19912;-85
2022/09/18 09:37:46;;;;;;;;;;;12.80;87.70;;;;;;5090185;28;19974;-87
2022/09/18 09:40:17;;;;;;;;;;;12.90;87.80;;;;;;5071033;28;19960;-85
2022/09/18 09:42:48;;;;;;;;;;;12.90;87.80;;;;;;5072181;28;19912;-85
2022/09/18 09:45:21;;;;;;;;;;;13.00;88.00;;;;;;5091316;28;19916;-84
2022/09/18 09:47:49;;;;;;;;;;;13.00;87.60;;;;;;5089734;28;19962;-85
2022/09/18 09:50:31;;;;;;;;;;;12.90;87.90;;;;;;5079596;28;21172;-86
2022/09/18 09:53:00;;;;;;;;;;;12.80;87.40;;;;;;5067250;28;19912;-85
2022/09/18 09:55:28;;;;;;;;;;;12.80;87.40;;;;;;5075754;28;19913;-86
2022/09/18 09:58:10;;;;;;;;;;;12.90;87.40;;;;;;5082312;28;19927;-88
2022/09/18 10:00:45;;;;;;;;;;;12.70;87.50;;;;;;5075593;28;19912;-86
2022/09/18 10:03:21;;;;;;;;;;;12.70;87.70;;;;;;5103774;28;19919;-87
2022/09/18 10:06:02;;;;;;;;;;;12.70;87.70;;;;;;5078555;28;19923;-85
2022/09/18 10:08:38;;;;;;;;;;;12.70;87.70;;;;;;5069763;28;19920;-85
2022/09/18 10:11:07;;;;;;;;;;;12.80;87.70;;;;;;5069531;28;19915;-84
2022/09/18 10:13:37;;;;;;;;;;;12.70;87.90;;;;;;5093868;28;19916;-85
2022/09/18 10:16:14;;;;;;;;;;;12.80;88.70;;;;;;5080454;28;19916;-83
2022/09/18 10:18:44;;;;;;;;;;;12.90;88.30;;;;;;5067065;28;20283;-85
2022/09/18 10:21:11;;;;;;;;;;;12.90;87.60;;;;;;5068918;28;20389;-83
2022/09/18 10:23:38;;;;;;;;;;;13.00;87.50;;;;;;5069783;28;19909;-85
2022/09/18 10:26:04;;;;;;;;;;;13.00;86.70;;;;;;5090159;28;19951;-85
2022/09/18 10:28:30;;;;;;;;;;;13.10;85.90;;;;;;5073975;28;19916;-85
2022/09/18 10:30:55;;;;;;;;;;;12.90;86.30;;;;;;5076547;28;19986;-85
2022/09/18 10:33:37;;;;;;;;;;;13.00;87.50;;;;;;5086368;28;19947;-85
2022/09/18 10:36:22;;;;;;;;;;;13.00;87.50;;;;;;5069157;28;19915;-87
2022/09/18 10:38:48;;;;;;;;;;;13.10;87.40;;;;;;5084140;28;20046;-84
2022/09/18 10:41:31;;;;;;;;;;;13.10;86.40;;;;;;5075672;28;20383;-85
2022/09/18 10:44:03;;;;;;;;;;;13.10;85.30;;;;;;5073521;28;19912;-84
2022/09/18 10:46:31;;;;;;;;;;;13.20;85.80;;;;;;5073078;28;19920;-85
2022/09/18 10:48:59;;;;;;;;;;;13.20;85.60;;;;;;5065230;28;20284;-88
2022/09/18 10:51:27;;;;;;;;;;;13.30;85.40;;;;;;5073322;28;20294;-86
2022/09/18 10:54:03;;;;;;;;;;;13.40;85.20;;;;;;5080775;28;19912;-84
2022/09/18 10:56:29;;;;;;;;;;;13.50;84.90;;;;;;5071841;28;20041;-84
2022/09/18 10:58:55;;;;;;;;;;;13.40;85.00;;;;;;5077463;28;19955;-86
2022/09/18 11:01:22;;;;;;;;;;;13.50;85.30;;;;;;5082579;28;19955;-88
2022/09/18 11:03:58;;;;;;;;;;;13.50;84.80;;;;;;5070555;28;20717;-84
2022/09/18 11:06:26;;;;;;;;;;;13.60;84.90;;;;;;5074502;28;19920;-83
2022/09/18 11:08:53;;;;;;;;;;;13.60;85.10;;;;;;5091134;28;20018;-83
2022/09/18 11:11:29;;;;;;;;;;;13.60;85.10;;;;;;5069495;28;19920;-82
2022/09/18 11:13:57;;;;;;;;;;;13.40;85.70;;;;;;5086966;28;19913;-84
2022/09/18 11:16:23;;;;;;;;;;;13.50;86.30;;;;;;5070658;28;19977;-86
2022/09/18 11:18:59;;;;;;;;;;;13.50;85.70;;;;;;5081857;28;19911;-83
2022/09/18 11:21:24;;;;;;;;;;;13.50;85.50;;;;;;5095392;28;19916;-82
2022/09/18 11:24:00;;;;;;;;;;;13.60;85.80;;;;;;5099230;28;19954;-82
2022/09/18 11:26:26;;;;;;;;;;;13.50;85.20;;;;;;5102194;28;19927;-82
2022/09/18 11:29:15;;;;;;;;;;;13.50;85.20;;;;;;5083739;28;19924;-83
2022/09/18 11:31:55;;;;;;;;;;;13.60;84.70;;;;;;5079673;28;19919;-83
2022/09/18 11:34:29;;;;;;;;;;;13.40;85.00;;;;;;5077333;28;19916;-84
2022/09/18 11:36:57;;;;;;;;;;;13.40;85.70;;;;;;5088524;28;19916;-85
2022/09/18 11:39:25;;;;;;;;;;;13.50;84.60;;;;;;5073027;28;19912;-81
2022/09/18 11:41:52;;;;;;;;;;;13.60;84.50;;;;;;5077334;28;19920;-83
2022/09/18 11:44:24;;;;;;;;;;;13.60;84.10;;;;;;5084079;28;20023;-83
2022/09/18 11:47:09;;;;;;;;;;;13.50;84.50;;;;;;5075388;28;19971;-84
2022/09/18 11:53:11;;;;;;;;;;;;;;;;;;;;;
2022/09/18 11:55:56;;;;;;;;;;;13.50;84.80;;;;;;5105888;28;20211;-83
2022/09/18 11:58:29;;;;;;;;;;;13.60;85.30;;;;;;5073249;28;20655;-81
2022/09/18 12:01:13;;;;;;;;;;;13.60;85.70;;;;;;5084059;28;20366;-83
2022/09/18 12:03:57;;;;;;;;;;;13.60;84.80;;;;;;5094999;28;19938;-83
2022/09/18 12:06:49;;;;;;;;;;;13.70;84.70;;;;;;5089713;28;19926;-83
2022/09/18 12:09:33;;;;;;;;;;;13.60;84.70;;;;;;5086709;28;19916;-82
2022/09/18 12:11:59;;;;;;;;;;;13.60;84.10;;;;;;5107016;28;19916;-82
2022/09/18 12:14:34;;;;;;;;;;;13.60;84.60;;;;;;5101899;28;19916;-83
2022/09/18 12:17:03;;;;;;;;;;;13.60;85.70;;;;;;5089684;28;19923;-85
2022/09/18 12:19:36;;;;;;;;;;;13.50;85.80;;;;;;5086479;28;19912;-82
2022/09/18 12:22:05;;;;;;;;;;;13.50;86.10;;;;;;5111170;28;19912;-81
2022/09/18 12:24:30;;;;;;;;;;;13.50;86.10;;;;;;5105835;28;19917;-82
2022/09/18 12:27:15;;;;;;;;;;;13.50;86.90;;;;;;5102877;28;19927;-83
2022/09/18 12:29:46;;;;;;;;;;;13.40;86.50;;;;;;5111399;28;19923;-83
2022/09/18 12:32:22;;;;;;;;;;;13.40;86.70;;;;;;5076951;28;19913;-82
2022/09/18 12:35:14;;;;;;;;;;;13.50;86.40;;;;;;5079789;28;19916;-82
2022/09/18 12:37:40;;;;;;;;;;;13.50;86.70;;;;;;5046382;28;19912;-82
2022/09/18 12:40:11;;;;;;;;;;;13.50;86.60;;;;;;5104901;28;19896;-83
2022/09/18 12:42:42;;;;;;;;;;;13.40;86.40;;;;;;5079853;28;19916;-83
2022/09/18 12:45:13;;;;;;;;;;;13.50;86.70;;;;;;5106845;28;19917;-83
2022/09/18 12:47:42;;;;;;;;;;;13.40;86.50;;;;;;5064101;28;20593;-82
2022/09/18 12:50:11;;;;;;;;;;;13.30;86.40;;;;;;5074480;28;19919;-82
2022/09/18 12:52:36;;;;;;;;;;;13.30;86.20;;;;;;5083234;28;19920;-82
2022/09/18 12:55:14;;;;;;;;;;;13.30;86.10;;;;;;5066371;28;19908;-82
2022/09/18 12:57:39;;;;;;;;;;;13.20;86.40;;;;;;5075400;28;19965;-82
2022/09/18 13:00:11;;;;;;;;;;;13.20;85.80;;;;;;5079185;28;20332;-83
2022/09/18 13:02:51;;;;;;;;;;;13.20;86.30;;;;;;5093697;28;19931;-83
2022/09/18 13:05:38;;;;;;;;;;;13.20;86.30;;;;;;5076462;28;19916;-82
2022/09/18 13:08:21;;;;;;;;;;;13.10;86.90;;;;;;5077511;28;19920;-82
2022/09/18 13:10:48;;;;;;;;;;;13.10;86.80;;;;;;5073106;28;19962;-83
2022/09/18 13:13:23;;;;;;;;;;;13.10;86.50;;;;;;5097662;28;20289;-82
2022/09/18 13:15:54;;;;;;;;;;;13.10;87.00;;;;;;5083120;28;20433;-82
2022/09/18 13:18:19;;;;;;;;;;;13.00;87.30;;;;;;5075707;28;19930;-82
2022/09/18 13:20:45;;;;;;;;;;;13.00;87.20;;;;;;5093657;28;19912;-83
2022/09/18 13:23:21;;;;;;;;;;;12.80;87.60;;;;;;5087714;28;19913;-82
2022/09/18 13:25:48;;;;;;;;;;;12.90;87.30;;;;;;5085835;28;19959;-81
2022/09/18 13:28:15;;;;;;;;;;;13.00;87.10;;;;;;5068493;28;19923;-81
2022/09/18 13:30:40;;;;;;;;;;;12.80;88.00;;;;;;5070451;28;19934;-82
2022/09/18 13:33:20;;;;;;;;;;;12.80;88.20;;;;;;5071018;28;20367;-82
2022/09/18 13:35:49;;;;;;;;;;;12.80;88.00;;;;;;5088028;28;20032;-83
2022/09/18 13:38:17;;;;;;;;;;;12.60;87.60;;;;;;5068777;28;19969;-81
2022/09/18 13:40:47;;;;;;;;;;;12.60;86.90;;;;;;5074417;28;19920;-82
2022/09/18 13:43:28;;;;;;;;;;;12.50;86.70;;;;;;5079493;28;19912;-82
2022/09/18 13:45:56;;;;;;;;;;;12.40;87.40;;;;;;5093684;28;19993;-84
2022/09/18 13:48:33;;;;;;;;;;;12.30;86.60;;;;;;5070900;28;20026;-82
2022/09/18 13:51:02;;;;;;;;;;;12.30;86.70;;;;;;5074404;28;19980;-85
2022/09/18 13:53:31;;;;;;;;;;;12.20;87.40;;;;;;5070079;28;19912;-82
2022/09/18 13:55:56;;;;;;;;;;;12.10;87.10;;;;;;5071363;28;20341;-84
2022/09/18 13:58:33;;;;;;;;;;;12.10;86.70;;;;;;5071555;28;19920;-83
2022/09/18 14:01:00;;;;;;;;;;;12.30;86.70;;;;;;5079645;28;19927;-84
2022/09/18 14:03:26;;;;;;;;;;;12.20;87.20;;;;;;5075695;28;20269;-83
2022/09/18 14:05:52;;;;;;;;;;;12.10;88.10;;;;;;5075920;28;19913;-80
2022/09/18 14:08:17;;;;;;;;;;;12.10;87.90;;;;;;5075174;28;20204;-81
2022/09/18 14:10:55;;;;;;;;;;;12.20;88.20;;;;;;5074495;28;19919;-81
2022/09/18 14:13:39;;;;;;;;;;;12.30;88.30;;;;;;5089801;28;19912;-83
2022/09/18 14:16:17;;;;;;;;;;;12.30;88.80;;;;;;5072605;28;19918;-83
2022/09/18 14:18:43;;;;;;;;;;;12.40;88.00;;;;;;5079059;28;19920;-81
2022/09/18 14:21:17;;;;;;;;;;;12.40;87.80;;;;;;5078021;28;20338;-81
2022/09/18 14:23:49;;;;;;;;;;;12.50;87.60;;;;;;5077637;28;19919;-82
2022/09/18 14:26:27;;;;;;;;;;;12.50;87.30;;;;;;5074711;28;20294;-83
2022/09/18 14:28:52;;;;;;;;;;;12.50;87.40;;;;;;5076311;28;19916;-82
2022/09/18 14:31:21;;;;;;;;;;;12.30;87.30;;;;;;5097217;28;19912;-82
2022/09/18 14:33:47;;;;;;;;;;;12.30;87.40;;;;;;5098652;28;20405;-81
2022/09/18 14:36:12;;;;;;;;;;;12.30;87.20;;;;;;5094763;28;19912;-81
2022/09/18 14:38:39;;;;;;;;;;;12.20;87.30;;;;;;5076301;28;19939;-82